sensor_id;sensor_type;location;lat;lon;timestamp;pressure;altitude;pressure_sealevel;temperature;humidity
84767;BME280;74995;49.824;10.994;2023-12-29T00:01:47;98822.06;;;15.39;50.62
84767;BME280;74995;49.824;10.994;2023-12-29T00:04:12;98826.91;;;15.43;50.45
84767;BME280;74995;49.824;10.994;2023-12-29T00:06:38;98818.28;;;15.41;50.65
84767;BME280;74995;49.824;10.994;2023-12-29T00:09:04;98815.94;;;15.38;50.54
84767;BME280;74995;49.824;10.994;2023-12-29T00:11:29;98819.56;;;15.37;50.67
84767;BME280;74995;49.824;10.994;2023-12-29T00:13:54;98813.84;;;15.42;50.57
84767;BME280;74995;49.824;10.994;2023-12-29T00:16:19;98815.63;;;15.41;50.49
84767;BME280;74995;49.824;10.994;2023-12-29T00:18:45;98819.25;;;15.40;50.57
84767;BME280;74995;49.824;10.994;2023-12-29T00:21:10;98820.63;;;15.44;50.41
84767;BME280;74995;49.824;10.994;2023-12-29T00:23:35;98819.81;;;15.44;50.52
84767;BME280;74995;49.824;10.994;2023-12-29T00:26:01;98818.53;;;15.48;50.62
84767;BME280;74995;49.824;10.994;2023-12-29T00:28:26;98812.56;;;15.46;50.32
84767;BME280;74995;49.824;10.994;2023-12-29T00:30:51;98817.56;;;15.49;50.35
84767;BME280;74995;49.824;10.994;2023-12-29T00:33:16;98824.78;;;15.47;50.57
84767;BME280;74995;49.824;10.994;2023-12-29T00:35:42;98821.84;;;15.50;50.31
84767;BME280;74995;49.824;10.994;2023-12-29T00:38:07;98809.78;;;15.47;50.48
84767;BME280;74995;49.824;10.994;2023-12-29T00:40:33;98806.97;;;15.49;50.49
84767;BME280;74995;49.824;10.994;2023-12-29T00:42:59;98792.94;;;15.48;50.35
84767;BME280;74995;49.824;10.994;2023-12-29T00:45:25;98795.28;;;15.51;50.37
84767;BME280;74995;49.824;10.994;2023-12-29T00:47:50;98798.06;;;15.50;50.42
84767;BME280;74995;49.824;10.994;2023-12-29T00:50:17;98784.03;;;15.49;50.48
84767;BME280;74995;49.824;10.994;2023-12-29T00:52:42;98773.91;;;15.45;50.51
84767;BME280;74995;49.824;10.994;2023-12-29T00:55:07;98788.34;;;15.50;50.36
84767;BME280;74995;49.824;10.994;2023-12-29T00:57:33;98777.06;;;15.48;50.48
84767;BME280;74995;49.824;10.994;2023-12-29T01:00:00;98778.75;;;15.49;50.45
84767;BME280;74995;49.824;10.994;2023-12-29T01:02:25;98785.16;;;15.47;50.29
84767;BME280;74995;49.824;10.994;2023-12-29T01:04:50;98791.72;;;15.43;50.30
84767;BME280;74995;49.824;10.994;2023-12-29T01:07:15;98794.06;;;15.46;50.46
84767;BME280;74995;49.824;10.994;2023-12-29T01:09:41;98790.72;;;15.44;50.45
84767;BME280;74995;49.824;10.994;2023-12-29T01:12:06;98785.16;;;15.47;50.34
84767;BME280;74995;49.824;10.994;2023-12-29T01:14:31;98772.91;;;15.46;50.37
84767;BME280;74995;49.824;10.994;2023-12-29T01:16:57;98779.72;;;15.48;50.47
84767;BME280;74995;49.824;10.994;2023-12-29T01:19:22;98779.03;;;15.46;50.44
84767;BME280;74995;49.824;10.994;2023-12-29T01:21:47;98773.47;;;15.49;50.23
84767;BME280;74995;49.824;10.994;2023-12-29T01:24:12;98776.25;;;15.48;50.44
84767;BME280;74995;49.824;10.994;2023-12-29T01:26:38;98778.75;;;15.49;50.18
84767;BME280;74995;49.824;10.994;2023-12-29T01:29:05;98775.56;;;15.46;50.30
84767;BME280;74995;49.824;10.994;2023-12-29T01:31:31;98778.66;;;15.41;50.39
84767;BME280;74995;49.824;10.994;2023-12-29T01:33:57;98776.97;;;15.40;50.38
84767;BME280;74995;49.824;10.994;2023-12-29T01:36:22;98779.19;;;15.45;50.32
84767;BME280;74995;49.824;10.994;2023-12-29T01:38:47;98776.69;;;15.43;50.41
84767;BME280;74995;49.824;10.994;2023-12-29T01:41:13;98782.50;;;15.47;50.30
84767;BME280;74995;49.824;10.994;2023-12-29T01:46:29;98777.97;;;15.39;50.46
84767;BME280;74995;49.824;10.994;2023-12-29T01:48:54;98767.53;;;15.38;50.14
84767;BME280;74995;49.824;10.994;2023-12-29T01:51:24;98772.00;;;15.37;50.44
84767;BME280;74995;49.824;10.994;2023-12-29T01:53:54;98770.72;;;15.41;50.58
84767;BME280;74995;49.824;10.994;2023-12-29T01:56:20;98779.63;;;15.40;50.51
84767;BME280;74995;49.824;10.994;2023-12-29T01:58:46;98771.69;;;15.40;50.59
84767;BME280;74995;49.824;10.994;2023-12-29T02:01:14;98773.91;;;15.45;50.51
84767;BME280;74995;49.824;10.994;2023-12-29T02:03:40;98760.16;;;15.41;50.47
84767;BME280;74995;49.824;10.994;2023-12-29T02:06:06;98763.78;;;15.40;50.58
84767;BME280;74995;49.824;10.994;2023-12-29T02:08:31;98760.69;;;15.45;50.39
84767;BME280;74995;49.824;10.994;2023-12-29T02:10:57;98758.34;;;15.42;50.39
84767;BME280;74995;49.824;10.994;2023-12-29T02:13:23;98753.06;;;15.42;50.38
84767;BME280;74995;49.824;10.994;2023-12-29T02:15:50;98742.19;;;15.45;50.31
84767;BME280;74995;49.824;10.994;2023-12-29T02:18:18;98749.44;;;15.43;50.54
84767;BME280;74995;49.824;10.994;2023-12-29T02:20:44;98751.41;;;15.41;50.40
84767;BME280;74995;49.824;10.994;2023-12-29T02:23:09;98741.66;;;15.41;50.47
84767;BME280;74995;49.824;10.994;2023-12-29T02:25:35;98757.22;;;15.44;50.53
84767;BME280;74995;49.824;10.994;2023-12-29T02:28:33;98755.56;;;15.43;50.35
84767;BME280;74995;49.824;10.994;2023-12-29T02:31:07;98744.69;;;15.46;50.51
84767;BME280;74995;49.824;10.994;2023-12-29T02:33:37;98751.09;;;15.44;50.43
84767;BME280;74995;49.824;10.994;2023-12-29T02:36:03;98753.06;;;15.42;50.45
84767;BME280;74995;49.824;10.994;2023-12-29T02:38:30;98749.72;;;15.40;50.63
84767;BME280;74995;49.824;10.994;2023-12-29T02:40:56;98744.59;;;15.38;50.40
84767;BME280;74995;49.824;10.994;2023-12-29T02:43:21;98742.34;;;15.43;50.37
84767;BME280;74995;49.824;10.994;2023-12-29T02:45:46;98740.69;;;15.42;50.44
84767;BME280;74995;49.824;10.994;2023-12-29T02:48:11;98734.94;;;15.47;50.57
84767;BME280;74995;49.824;10.994;2023-12-29T02:50:37;98732.44;;;15.45;50.43
84767;BME280;74995;49.824;10.994;2023-12-29T02:53:02;98728.69;;;15.48;50.39
84767;BME280;74995;49.824;10.994;2023-12-29T02:55:29;98713.13;;;15.45;50.47
84767;BME280;74995;49.824;10.994;2023-12-29T02:57:54;98713.41;;;15.42;50.38
84767;BME280;74995;49.824;10.994;2023-12-29T03:00:19;98714.09;;;15.44;50.38
84767;BME280;74995;49.824;10.994;2023-12-29T03:02:45;98712.44;;;15.43;50.48
84767;BME280;74995;49.824;10.994;2023-12-29T03:05:10;98703.16;;;15.39;50.77
84767;BME280;74995;49.824;10.994;2023-12-29T03:07:36;98709.41;;;15.38;50.51
84767;BME280;74995;49.824;10.994;2023-12-29T03:10:01;98695.75;;;15.42;50.50
84767;BME280;74995;49.824;10.994;2023-12-29T03:12:27;98702.84;;;15.42;50.45
84767;BME280;74995;49.824;10.994;2023-12-29T03:14:52;98712.28;;;15.44;50.41
84767;BME280;74995;49.824;10.994;2023-12-29T03:17:17;98704.50;;;15.43;50.33
84767;BME280;74995;49.824;10.994;2023-12-29T03:19:42;98704.22;;;15.46;50.21
84767;BME280;74995;49.824;10.994;2023-12-29T03:22:08;98692.97;;;15.44;50.29
84767;BME280;74995;49.824;10.994;2023-12-29T03:24:34;98697.13;;;15.46;50.38
84767;BME280;74995;49.824;10.994;2023-12-29T03:26:59;98698.41;;;15.42;50.38
84767;BME280;74995;49.824;10.994;2023-12-29T03:29:24;98699.38;;;15.41;50.42
84767;BME280;74995;49.824;10.994;2023-12-29T03:31:50;98692.97;;;15.44;50.50
84767;BME280;74995;49.824;10.994;2023-12-29T03:34:15;98695.75;;;15.42;50.49
84767;BME280;74995;49.824;10.994;2023-12-29T03:36:40;98703.00;;;15.40;50.42
84767;BME280;74995;49.824;10.994;2023-12-29T03:39:05;98700.88;;;15.44;50.43
84767;BME280;74995;49.824;10.994;2023-12-29T03:41:31;98706.31;;;15.42;50.56
84767;BME280;74995;49.824;10.994;2023-12-29T03:43:56;98696.28;;;15.46;50.45
84767;BME280;74995;49.824;10.994;2023-12-29T03:46:21;98699.06;;;15.44;50.29
84767;BME280;74995;49.824;10.994;2023-12-29T03:48:47;98698.94;;;15.46;50.31
84767;BME280;74995;49.824;10.994;2023-12-29T03:51:13;98692.13;;;15.43;50.20
84767;BME280;74995;49.824;10.994;2023-12-29T03:53:39;98690.78;;;15.39;50.52
84767;BME280;74995;49.824;10.994;2023-12-29T03:56:06;98688.28;;;15.38;50.44
84767;BME280;74995;49.824;10.994;2023-12-29T03:58:31;98681.72;;;15.42;50.33
84767;BME280;74995;49.824;10.994;2023-12-29T04:00:57;98685.34;;;15.41;50.30
84767;BME280;74995;49.824;10.994;2023-12-29T04:03:22;98696.72;;;15.41;50.27
84767;BME280;74995;49.824;10.994;2023-12-29T04:05:47;98694.25;;;15.40;50.49
84767;BME280;74995;49.824;10.994;2023-12-29T04:08:12;98698.84;;;15.38;50.47
84767;BME280;74995;49.824;10.994;2023-12-29T04:10:38;98695.75;;;15.42;50.45
84767;BME280;74995;49.824;10.994;2023-12-29T04:13:03;98693.25;;;15.41;50.29
84767;BME280;74995;49.824;10.994;2023-12-29T04:15:28;98692.13;;;15.43;50.18
84767;BME280;74995;49.824;10.994;2023-12-29T04:17:54;98697.56;;;15.42;50.39
84767;BME280;74995;49.824;10.994;2023-12-29T04:20:19;98698.25;;;15.44;50.35
84767;BME280;74995;49.824;10.994;2023-12-29T04:22:45;98707.97;;;15.43;50.42
84767;BME280;74995;49.824;10.994;2023-12-29T04:25:10;98701.88;;;15.43;50.21
84767;BME280;74995;49.824;10.994;2023-12-29T04:27:36;98708.97;;;15.42;50.41
84767;BME280;74995;49.824;10.994;2023-12-29T04:30:01;98706.84;;;15.46;50.11
84767;BME280;74995;49.824;10.994;2023-12-29T04:32:28;98702.69;;;15.43;50.20
84767;BME280;74995;49.824;10.994;2023-12-29T04:34:53;98697.72;;;15.40;50.25
84767;BME280;74995;49.824;10.994;2023-12-29T04:37:18;98702.69;;;15.43;50.34
84767;BME280;74995;49.824;10.994;2023-12-29T04:39:43;98705.50;;;15.42;50.55
84767;BME280;74995;49.824;10.994;2023-12-29T04:42:09;98702.56;;;15.45;50.41
84767;BME280;74995;49.824;10.994;2023-12-29T04:44:34;98714.09;;;15.44;50.30
84767;BME280;74995;49.824;10.994;2023-12-29T04:46:59;98707.69;;;15.46;50.27
84767;BME280;74995;49.824;10.994;2023-12-29T04:49:24;98709.66;;;15.44;50.30
84767;BME280;74995;49.824;10.994;2023-12-29T04:51:49;98710.47;;;15.45;50.32
84767;BME280;74995;49.824;10.994;2023-12-29T04:54:15;98709.66;;;15.44;50.31
84767;BME280;74995;49.824;10.994;2023-12-29T04:56:40;98717.28;;;15.47;50.01
84767;BME280;74995;49.824;10.994;2023-12-29T04:59:05;98715.63;;;15.46;50.30
84767;BME280;74995;49.824;10.994;2023-12-29T05:01:31;98701.41;;;15.47;50.09
84767;BME280;74995;49.824;10.994;2023-12-29T05:03:56;98710.47;;;15.45;50.09
84767;BME280;74995;49.824;10.994;2023-12-29T05:06:21;98709.34;;;15.47;50.08
84767;BME280;74995;49.824;10.994;2023-12-29T05:08:46;98716.59;;;15.45;50.21
84767;BME280;74995;49.824;10.994;2023-12-29T05:11:11;98715.47;;;15.48;50.24
84767;BME280;74995;49.824;10.994;2023-12-29T05:13:37;98706.31;;;15.42;50.12
84767;BME280;74995;49.824;10.994;2023-12-29T05:16:02;98709.94;;;15.41;50.13
84767;BME280;74995;49.824;10.994;2023-12-29T05:18:29;98703.53;;;15.44;50.14
84767;BME280;74995;49.824;10.994;2023-12-29T05:20:54;98694.78;;;15.43;50.13
84767;BME280;74995;49.824;10.994;2023-12-29T05:23:20;98699.22;;;15.43;49.88
84767;BME280;74995;49.824;10.994;2023-12-29T05:25:45;98700.22;;;15.42;50.03
84767;BME280;74995;49.824;10.994;2023-12-29T05:28:11;98698.53;;;15.41;50.08
84767;BME280;74995;49.824;10.994;2023-12-29T05:30:36;98703.53;;;15.44;49.97
84767;BME280;74995;49.824;10.994;2023-12-29T05:33:02;98696.59;;;15.43;50.01
84767;BME280;74995;49.824;10.994;2023-12-29T05:35:27;98695.44;;;15.45;49.87
84767;BME280;74995;49.824;10.994;2023-12-29T05:37:52;98689.25;;;15.36;49.93
84767;BME280;74995;49.824;10.994;2023-12-29T05:40:17;98697.25;;;15.45;49.86
84767;BME280;74995;49.824;10.994;2023-12-29T05:42:43;98700.06;;;15.43;49.75
84767;BME280;74995;49.824;10.994;2023-12-29T05:45:08;98694.47;;;15.46;49.74
84767;BME280;74995;49.824;10.994;2023-12-29T05:47:34;98701.88;;;15.43;49.83
84767;BME280;74995;49.824;10.994;2023-12-29T05:49:59;98702.16;;;15.40;49.98
84767;BME280;74995;49.824;10.994;2023-12-29T05:52:24;98714.09;;;15.44;49.79
84767;BME280;74995;49.824;10.994;2023-12-29T05:54:49;98712.75;;;15.40;49.78
84767;BME280;74995;49.824;10.994;2023-12-29T05:57:15;98707.59;;;15.38;49.99
84767;BME280;74995;49.824;10.994;2023-12-29T05:59:40;98705.50;;;15.42;49.84
84767;BME280;74995;49.824;10.994;2023-12-29T06:02:05;98703.84;;;15.41;49.82
84767;BME280;74995;49.824;10.994;2023-12-29T06:04:30;98700.06;;;15.43;49.72
84767;BME280;74995;49.824;10.994;2023-12-29T06:06:56;98701.19;;;15.41;49.98
84767;BME280;74995;49.824;10.994;2023-12-29T06:09:21;98706.63;;;15.39;50.15
84767;BME280;74995;49.824;10.994;2023-12-29T06:11:46;98697.56;;;15.42;49.84
84767;BME280;74995;49.824;10.994;2023-12-29T06:14:12;98698.53;;;15.41;49.83
84767;BME280;74995;49.824;10.994;2023-12-29T06:16:37;98697.41;;;15.43;49.66
84767;BME280;74995;49.824;10.994;2023-12-29T06:19:02;98702.84;;;15.42;49.67
84767;BME280;74995;49.824;10.994;2023-12-29T06:21:27;98701.47;;;15.38;49.81
84767;BME280;74995;49.824;10.994;2023-12-29T06:23:52;98688.41;;;15.36;49.71
84767;BME280;74995;49.824;10.994;2023-12-29T06:26:19;98697.72;;;15.40;49.61
84767;BME280;74995;49.824;10.994;2023-12-29T06:28:45;98698.84;;;15.38;49.45
84767;BME280;74995;49.824;10.994;2023-12-29T06:31:11;98697.19;;;15.36;49.75
84767;BME280;74995;49.824;10.994;2023-12-29T06:33:38;98702.16;;;15.40;49.59
84767;BME280;74995;49.824;10.994;2023-12-29T06:36:05;98694.53;;;15.36;49.48
84767;BME280;74995;49.824;10.994;2023-12-29T06:38:30;98697.19;;;15.36;49.67
84767;BME280;74995;49.824;10.994;2023-12-29T06:40:56;98702.16;;;15.40;49.64
84767;BME280;74995;49.824;10.994;2023-12-29T06:43:22;98708.44;;;15.39;49.65
84767;BME280;74995;49.824;10.994;2023-12-29T06:45:47;98712.59;;;15.41;49.50
84767;BME280;74995;49.824;10.994;2023-12-29T06:48:12;98709.41;;;15.38;49.53
84767;BME280;74995;49.824;10.994;2023-12-29T06:50:37;98710.56;;;15.35;49.35
84767;BME280;74995;49.824;10.994;2023-12-29T06:53:03;98712.88;;;15.38;49.42
84767;BME280;74995;49.824;10.994;2023-12-29T06:55:28;98707.75;;;15.36;49.49
84767;BME280;74995;49.824;10.994;2023-12-29T06:57:53;98695.22;;;15.39;49.38
84767;BME280;74995;49.824;10.994;2023-12-29T07:00:18;98701.47;;;15.38;49.53
84767;BME280;74995;49.824;10.994;2023-12-29T07:02:44;98702.16;;;15.40;49.11
84767;BME280;74995;49.824;10.994;2023-12-29T07:05:09;98699.00;;;15.36;49.41
84767;BME280;74995;49.824;10.994;2023-12-29T07:07:35;98703.78;;;15.32;49.38
84767;BME280;74995;49.824;10.994;2023-12-29T07:10:00;98710.03;;;15.31;49.56
84767;BME280;74995;49.824;10.994;2023-12-29T07:12:25;98701.28;;;15.31;49.46
84767;BME280;74995;49.824;10.994;2023-12-29T07:14:51;98714.19;;;15.34;49.42
84767;BME280;74995;49.824;10.994;2023-12-29T07:17:16;98708.72;;;15.35;49.43
84767;BME280;74995;49.824;10.994;2023-12-29T07:19:41;98714.63;;;15.29;49.58
84767;BME280;74995;49.824;10.994;2023-12-29T07:22:07;98713.66;;;15.30;49.47
84767;BME280;74995;49.824;10.994;2023-12-29T07:24:33;98727.84;;;15.29;49.68
84767;BME280;74995;49.824;10.994;2023-12-29T07:26:58;98729.22;;;15.33;49.49
84767;BME280;74995;49.824;10.994;2023-12-29T07:29:23;98738.28;;;15.31;49.32
84767;BME280;74995;49.824;10.994;2023-12-29T07:31:48;98739.25;;;15.30;49.64
84767;BME280;74995;49.824;10.994;2023-12-29T07:34:14;98728.53;;;15.31;49.34
84767;BME280;74995;49.824;10.994;2023-12-29T07:36:39;98740.75;;;15.32;49.60
84767;BME280;74995;49.824;10.994;2023-12-29T07:39:05;98736.16;;;15.34;49.38
84767;BME280;74995;49.824;10.994;2023-12-29T07:41:31;98751.34;;;15.32;49.49
84767;BME280;74995;49.824;10.994;2023-12-29T07:43:56;98743.06;;;15.35;49.31
84767;BME280;74995;49.824;10.994;2023-12-29T07:46:27;98739.41;;;15.28;49.41
84767;BME280;74995;49.824;10.994;2023-12-29T07:48:52;98752.59;;;15.28;49.49
84767;BME280;74995;49.824;10.994;2023-12-29T07:51:18;98749.28;;;15.26;49.48
84767;BME280;74995;49.824;10.994;2023-12-29T07:53:43;98755.25;;;15.28;49.38
84767;BME280;74995;49.824;10.994;2023-12-29T07:56:10;98746.50;;;15.28;49.60
84767;BME280;74995;49.824;10.994;2023-12-29T07:58:35;98747.16;;;15.30;49.59
84767;BME280;74995;49.824;10.994;2023-12-29T08:01:00;98751.63;;;15.29;49.43
84767;BME280;74995;49.824;10.994;2023-12-29T08:03:25;98741.75;;;15.31;49.40
84767;BME280;74995;49.824;10.994;2023-12-29T08:05:51;98755.25;;;15.28;49.40
84767;BME280;74995;49.824;10.994;2023-12-29T08:08:17;98748.97;;;15.29;49.46
84767;BME280;74995;49.824;10.994;2023-12-29T08:10:42;98759.84;;;15.26;49.44
84767;BME280;74995;49.824;10.994;2023-12-29T08:13:07;98755.38;;;15.27;49.35
84767;BME280;74995;49.824;10.994;2023-12-29T08:15:34;98748.88;;;15.21;49.42
84767;BME280;74995;49.824;10.994;2023-12-29T08:18:00;98758.78;;;15.19;49.56
84767;BME280;74995;49.824;10.994;2023-12-29T08:20:25;98760.28;;;15.22;49.18
84767;BME280;74995;49.824;10.994;2023-12-29T08:22:50;98755.59;;;15.16;49.45
84767;BME280;74995;49.824;10.994;2023-12-29T08:25:16;98764.63;;;15.13;49.48
84767;BME280;74995;49.824;10.994;2023-12-29T08:27:41;98768.25;;;15.12;49.75
84767;BME280;74995;49.824;10.994;2023-12-29T08:30:07;98767.97;;;15.15;49.23
84767;BME280;74995;49.824;10.994;2023-12-29T08:32:33;98766.44;;;15.13;49.46
84767;BME280;74995;49.824;10.994;2023-12-29T08:34:58;98765.63;;;15.12;49.71
84767;BME280;74995;49.824;10.994;2023-12-29T08:37:24;98772.41;;;15.15;49.40
84767;BME280;74995;49.824;10.994;2023-12-29T08:39:49;98769.09;;;15.13;49.80
84767;BME280;74995;49.824;10.994;2023-12-29T08:42:14;98770.91;;;15.12;49.79
84767;BME280;74995;49.824;10.994;2023-12-29T08:44:40;98779.34;;;15.16;49.67
84767;BME280;74995;49.824;10.994;2023-12-29T08:47:05;98781.16;;;15.15;49.61
84767;BME280;74995;49.824;10.994;2023-12-29T08:49:34;98780.03;;;15.18;49.58
84767;BME280;74995;49.824;10.994;2023-12-29T08:52:00;98782.97;;;15.15;49.76
84767;BME280;74995;49.824;10.994;2023-12-29T08:54:25;98781.31;;;15.14;49.56
84767;BME280;74995;49.824;10.994;2023-12-29T08:56:50;98779.22;;;15.17;50.13
84767;BME280;74995;49.824;10.994;2023-12-29T08:59:15;98782.00;;;15.16;49.76
84767;BME280;74995;49.824;10.994;2023-12-29T09:01:40;98780.72;;;15.20;49.71
84767;BME280;74995;49.824;10.994;2023-12-29T09:04:06;98781.03;;;15.17;49.82
84767;BME280;74995;49.824;10.994;2023-12-29T09:06:31;98778.69;;;15.14;49.71
84767;BME280;74995;49.824;10.994;2023-12-29T09:08:56;98784.78;;;15.14;49.73
84767;BME280;74995;49.824;10.994;2023-12-29T09:11:22;98779.50;;;15.14;49.72
84767;BME280;74995;49.824;10.994;2023-12-29T09:13:47;98790.63;;;15.18;49.88
84767;BME280;74995;49.824;10.994;2023-12-29T09:16:12;98788.81;;;15.18;49.81
84767;BME280;74995;49.824;10.994;2023-12-29T09:18:37;98777.56;;;15.16;49.74
84767;BME280;74995;49.824;10.994;2023-12-29T09:21:03;98788.50;;;15.21;49.81
84767;BME280;74995;49.824;10.994;2023-12-29T09:23:28;98793.50;;;15.24;49.65
84767;BME280;74995;49.824;10.994;2023-12-29T09:25:53;98793.50;;;15.24;49.73
84767;BME280;74995;49.824;10.994;2023-12-29T09:28:18;98796.69;;;15.28;49.74
84767;BME280;74995;49.824;10.994;2023-12-29T09:30:44;98802.94;;;15.27;49.79
84767;BME280;74995;49.824;10.994;2023-12-29T09:33:09;98797.22;;;15.31;49.67
84767;BME280;74995;49.824;10.994;2023-12-29T09:35:37;98794.88;;;15.28;49.71
84767;BME280;74995;49.824;10.994;2023-12-29T09:38:02;98795.72;;;15.29;49.82
84767;BME280;74995;49.824;10.994;2023-12-29T09:40:29;98791.78;;;15.33;49.59
84767;BME280;74995;49.824;10.994;2023-12-29T09:42:54;98790.97;;;15.32;49.75
84767;BME280;74995;49.824;10.994;2023-12-29T09:45:23;98792.47;;;15.35;49.54
84767;BME280;74995;49.824;10.994;2023-12-29T09:47:51;98778.44;;;15.34;49.60
84767;BME280;74995;49.824;10.994;2023-12-29T09:50:17;98775.09;;;15.32;49.84
84767;BME280;74995;49.824;10.994;2023-12-29T09:52:43;98785.69;;;15.32;49.87
84767;BME280;74995;49.824;10.994;2023-12-29T09:55:10;98780.75;;;15.38;49.66
84767;BME280;74995;49.824;10.994;2023-12-29T09:57:40;98779.28;;;15.35;49.74
84767;BME280;74995;49.824;10.994;2023-12-29T10:00:11;98773.97;;;15.35;49.80
84767;BME280;74995;49.824;10.994;2023-12-29T10:02:37;98773.16;;;15.34;49.86
84767;BME280;74995;49.824;10.994;2023-12-29T10:05:03;98771.34;;;15.35;49.84
84767;BME280;74995;49.824;10.994;2023-12-29T10:07:32;98757.31;;;15.34;49.72
84767;BME280;74995;49.824;10.994;2023-12-29T10:10:01;98757.31;;;15.34;49.78
84767;BME280;74995;49.824;10.994;2023-12-29T10:12:27;98753.66;;;15.35;49.88
84767;BME280;74995;49.824;10.994;2023-12-29T10:15:12;98757.31;;;15.34;49.72
84767;BME280;74995;49.824;10.994;2023-12-29T10:18:07;98757.94;;;15.36;49.73
84767;BME280;74995;49.824;10.994;2023-12-29T10:21:01;98749.03;;;15.38;49.81
84767;BME280;74995;49.824;10.994;2023-12-29T10:26:00;98747.09;;;15.40;49.65
84767;BME280;74995;49.824;10.994;2023-12-29T10:28:25;98751.25;;;15.42;49.67
84767;BME280;74995;49.824;10.994;2023-12-29T10:30:50;98744.53;;;15.48;49.49
84767;BME280;74995;49.824;10.994;2023-12-29T10:33:19;98743.41;;;15.50;49.66
84767;BME280;74995;49.824;10.994;2023-12-29T10:36:04;98746.59;;;15.54;49.50
84767;BME280;74995;49.824;10.994;2023-12-29T10:38:32;98731.72;;;15.53;49.36
84767;BME280;74995;49.824;10.994;2023-12-29T10:41:16;98727.41;;;15.52;49.30
84767;BME280;74995;49.824;10.994;2023-12-29T10:43:43;98726.00;;;15.57;49.31
84767;BME280;74995;49.824;10.994;2023-12-29T10:46:10;98731.56;;;15.54;49.37
84767;BME280;74995;49.824;10.994;2023-12-29T10:48:36;98726.03;;;15.48;49.38
84767;BME280;74995;49.824;10.994;2023-12-29T10:51:03;98722.25;;;15.50;49.47
84767;BME280;74995;49.824;10.994;2023-12-29T10:53:33;98722.41;;;15.49;49.41
84767;BME280;74995;49.824;10.994;2023-12-29T10:55:58;98710.47;;;15.45;49.51
84767;BME280;74995;49.824;10.994;2023-12-29T10:58:25;98717.13;;;15.49;49.50
84767;BME280;74995;49.824;10.994;2023-12-29T11:00:53;98708.50;;;15.47;49.57
84767;BME280;74995;49.824;10.994;2023-12-29T11:03:19;98711.84;;;15.49;49.82
84767;BME280;74995;49.824;10.994;2023-12-29T11:05:44;98704.44;;;15.52;49.54
84767;BME280;74995;49.824;10.994;2023-12-29T11:08:19;98696.78;;;15.59;49.53
84767;BME280;74995;49.824;10.994;2023-12-29T11:10:47;98692.28;;;15.59;49.43
84767;BME280;74995;49.824;10.994;2023-12-29T11:13:13;98689.16;;;15.56;49.48
84767;BME280;74995;49.824;10.994;2023-12-29T11:15:45;98689.00;;;15.57;49.39
84767;BME280;74995;49.824;10.994;2023-12-29T11:18:17;98684.53;;;15.58;49.48
84767;BME280;74995;49.824;10.994;2023-12-29T11:20:44;98691.50;;;15.59;49.48
84767;BME280;74995;49.824;10.994;2023-12-29T11:23:11;98688.84;;;15.59;49.59
84767;BME280;74995;49.824;10.994;2023-12-29T11:25:39;98687.00;;;15.59;49.51
84767;BME280;74995;49.824;10.994;2023-12-29T11:28:08;98695.63;;;15.61;49.44
84767;BME280;74995;49.824;10.994;2023-12-29T11:30:34;98678.31;;;15.67;49.36
84767;BME280;74995;49.824;10.994;2023-12-29T11:33:03;98672.06;;;15.68;49.16
84767;BME280;74995;49.824;10.994;2023-12-29T11:35:53;98671.75;;;15.71;49.27
84767;BME280;74995;49.824;10.994;2023-12-29T11:42:04;98669.41;;;15.68;49.31
84767;BME280;74995;49.824;10.994;2023-12-29T11:44:31;98669.41;;;15.68;49.13
84767;BME280;74995;49.824;10.994;2023-12-29T11:46:58;98677.50;;;15.66;49.33
84767;BME280;74995;49.824;10.994;2023-12-29T11:49:24;98669.72;;;15.65;49.23
84767;BME280;74995;49.824;10.994;2023-12-29T11:51:50;98671.22;;;15.67;49.29
84767;BME280;74995;49.824;10.994;2023-12-29T11:54:25;98661.19;;;15.71;49.22
84767;BME280;74995;49.824;10.994;2023-12-29T11:56:53;98673.25;;;15.74;49.30
84767;BME280;74995;49.824;10.994;2023-12-29T11:59:23;98667.28;;;15.72;49.24
84767;BME280;74995;49.824;10.994;2023-12-29T12:01:50;98663.81;;;15.71;49.21
84767;BME280;74995;49.824;10.994;2023-12-29T12:04:41;98654.38;;;15.68;49.37
84767;BME280;74995;49.824;10.994;2023-12-29T12:07:17;98669.94;;;15.72;49.60
84767;BME280;74995;49.824;10.994;2023-12-29T12:12:46;98660.03;;;15.74;49.27
84767;BME280;74995;49.824;10.994;2023-12-29T12:17:52;98651.34;;;15.81;49.24
84767;BME280;74995;49.824;10.994;2023-12-29T12:20:17;98639.78;;;15.82;49.16
84767;BME280;74995;49.824;10.994;2023-12-29T12:22:43;98639.28;;;15.87;49.23
84767;BME280;74995;49.824;10.994;2023-12-29T12:25:11;98639.44;;;15.85;48.93
84767;BME280;74995;49.824;10.994;2023-12-29T12:27:38;98628.38;;;15.82;49.29
84767;BME280;74995;49.824;10.994;2023-12-29T12:30:03;98632.00;;;15.81;49.06
84767;BME280;74995;49.824;10.994;2023-12-29T12:32:29;98630.19;;;15.81;49.29
84767;BME280;74995;49.824;10.994;2023-12-29T12:34:56;98632.34;;;15.86;48.98
84767;BME280;74995;49.824;10.994;2023-12-29T12:37:28;98640.28;;;15.86;48.92
84767;BME280;74995;49.824;10.994;2023-12-29T12:39:54;98631.66;;;15.84;49.08
84767;BME280;74995;49.824;10.994;2023-12-29T12:42:21;98635.28;;;15.83;49.16
84767;BME280;74995;49.824;10.994;2023-12-29T12:44:50;98636.47;;;15.80;49.18
84767;BME280;74995;49.824;10.994;2023-12-29T12:47:25;98631.19;;;15.80;49.11
84767;BME280;74995;49.824;10.994;2023-12-29T12:49:52;98636.47;;;15.80;49.18
84767;BME280;74995;49.824;10.994;2023-12-29T12:52:17;98630.19;;;15.81;49.03
84767;BME280;74995;49.824;10.994;2023-12-29T12:54:43;98633.03;;;15.88;49.06
84767;BME280;74995;49.824;10.994;2023-12-29T12:57:08;98627.72;;;15.88;49.20
84767;BME280;74995;49.824;10.994;2023-12-29T12:59:33;98627.28;;;15.92;48.78
84767;BME280;74995;49.824;10.994;2023-12-29T13:01:59;98621.97;;;15.92;48.83